Selfridge Angb Airport Mount Clemens US
ICAO: KMTC
IATA: MTC
Category: Medium
Scheduled Services: No

Elevation: 580 ft
TransAlt. 18000 ft.

Airport Communications:
927 ARW OPS:31.42
APP:119.6
ATIS:125.325
CLNC DEL:119
DEP:119.6
GND:128.3
USCG DETROIT AIR:38.18
WING COMD POST:148.525
PMSV/METRO:34.25
PTD:134.85
TWR:120.15

KMTC Zoom In..

If you have problems with the map follow the link
https://www.worldairports.se/pages/airport.php?
ICAO=KMTC

Runways:

(A) RW 01 length 9000 ft width 150 ft
ILS 110.10 / hdg 8

(B) RW 19 length 9000 ft width 150 ft
ILS 110.10 / hdg 188

Location; KMTC
Day. 08 / Time. 04.56 Zulu
* Altimeter: 30.26
* Temperature: 01° c. 33.8°f.
* Wind from: 170° Speed 09 kn.
Dewpoint: 00° c.
Visibility: 10 Statute Miles.
Clouds: Scattered 7500 ft.

KMTC 080456Z AUTO 17009KT 10SM SCT075 01/00 A3026 RMK AO2 SLP259 T00080001 400111049


Wind From 170°
Speed 09 kn.

 
 
jpsmedia worldairports.se 2019   terms of use